createdAt,value
2022-12-03T00:00:23.266Z,102822.30
2022-12-03T00:01:26.481Z,102817.73
2022-12-03T00:02:29.900Z,102824.80
2022-12-03T00:03:34.941Z,102830.95
2022-12-03T00:04:38.192Z,102821.04
2022-12-03T00:05:48.202Z,102825.45
2022-12-03T00:06:46.375Z,102831.65
2022-12-03T00:07:49.597Z,102824.52
2022-12-03T00:08:52.878Z,102826.19
2022-12-03T00:09:56.090Z,102829.63
2022-12-03T00:10:59.309Z,102833.16
2022-12-03T00:12:02.484Z,102836.70
2022-12-03T00:13:05.690Z,102839.38
2022-12-03T00:14:09.183Z,102834.03
2022-12-03T00:15:12.466Z,102836.77
2022-12-03T00:16:16.048Z,102833.23
2022-12-03T00:17:19.294Z,102829.69
2022-12-03T00:18:22.473Z,102832.36
2022-12-03T00:19:25.641Z,102834.97
2022-12-03T00:20:28.710Z,102834.03
2022-12-03T00:21:31.799Z,102831.30
2022-12-03T00:22:34.870Z,102832.16
2022-12-03T00:23:42.028Z,102820.52
2022-12-03T00:24:42.918Z,102831.20
2022-12-03T00:25:46.002Z,102826.73
2022-12-03T00:26:49.089Z,102827.70
2022-12-03T00:27:52.263Z,102833.97
2022-12-03T00:28:55.645Z,102839.30
2022-12-03T00:29:58.742Z,102836.70
2022-12-03T00:31:01.894Z,102827.89
2022-12-03T00:32:05.347Z,102830.56
2022-12-03T00:33:08.443Z,102836.86
2022-12-03T00:34:11.676Z,102826.31
2022-12-03T00:35:15.016Z,102831.65
2022-12-03T00:36:18.578Z,102836.98
2022-12-03T00:37:21.663Z,102833.39
2022-12-03T00:38:24.739Z,102833.39
2022-12-03T00:39:27.813Z,102836.98
2022-12-03T00:40:30.978Z,102836.98
2022-12-03T00:41:34.740Z,102831.65
2022-12-03T00:42:37.922Z,102830.72
2022-12-03T00:43:40.998Z,102835.12
2022-12-03T00:44:44.053Z,102845.70
2022-12-03T00:45:47.123Z,102842.04
2022-12-03T00:46:50.376Z,102834.90
2022-12-03T00:47:53.502Z,102837.50
2022-12-03T00:48:56.568Z,102833.80
2022-12-03T00:49:59.637Z,102831.07
2022-12-03T00:51:02.710Z,102841.59
2022-12-03T00:52:05.786Z,102835.31
2022-12-03T00:53:08.876Z,102841.52
2022-12-03T00:54:11.950Z,102832.64
2022-12-03T00:55:15.548Z,102836.12
2022-12-03T00:56:18.662Z,102831.71
2022-12-03T00:57:21.735Z,102839.72
2022-12-03T00:58:24.830Z,102833.45
2022-12-03T00:59:27.909Z,102836.98
2022-12-03T01:00:30.997Z,102837.76
2022-12-03T01:01:34.118Z,102842.16
2022-12-03T01:02:37.247Z,102837.69
2022-12-03T01:03:40.450Z,102834.09
2022-12-03T01:04:43.617Z,102835.83
2022-12-03T01:05:47.306Z,102838.39
2022-12-03T01:06:50.666Z,102836.47
2022-12-03T01:07:53.920Z,102840.88
2022-12-03T01:08:57.090Z,102841.64
2022-12-03T01:10:00.301Z,102831.89
2022-12-03T01:11:03.421Z,102842.58
2022-12-03T01:12:06.618Z,102837.17
2022-12-03T01:13:10.123Z,102840.70
2022-12-03T01:14:16.205Z,102848.72
2022-12-03T01:15:19.676Z,102846.05
2022-12-03T01:16:22.868Z,102836.30
2022-12-03T01:17:26.108Z,102859.46
2022-12-03T01:18:29.297Z,102850.52
2022-12-03T01:19:34.618Z,102844.31
2022-12-03T01:20:38.144Z,102850.52
2022-12-03T01:21:42.343Z,102850.52
2022-12-03T01:22:45.542Z,102859.40
2022-12-03T01:23:49.135Z,102857.53
2022-12-03T01:24:52.627Z,102856.59
2022-12-03T01:25:56.041Z,102852.02
2022-12-03T01:27:00.343Z,102852.02
2022-12-03T01:28:03.559Z,102858.23
2022-12-03T01:29:06.747Z,102853.77
2022-12-03T01:30:11.806Z,102853.77
2022-12-03T01:31:33.474Z,102859.97
2022-12-03T01:32:36.691Z,102864.45
2022-12-03T01:33:39.859Z,102864.52
2022-12-03T01:34:47.792Z,102868.98
2022-12-03T01:35:51.017Z,102858.30
2022-12-03T01:36:54.116Z,102865.45
2022-12-03T01:37:57.305Z,102872.62
2022-12-03T01:39:02.112Z,102867.28
2022-12-03T01:40:08.175Z,102878.80
2022-12-03T01:41:12.083Z,102864.52
2022-12-03T01:43:28.988Z,102869.26
2022-12-03T01:44:34.462Z,102864.45
2022-12-03T01:45:37.643Z,102867.98
2022-12-03T01:46:42.237Z,102867.98
2022-12-03T01:47:45.571Z,102871.42
2022-12-03T01:48:51.635Z,102871.36
2022-12-03T01:50:10.508Z,102868.62
2022-12-03T01:51:14.495Z,102876.47
2022-12-03T01:52:20.978Z,102871.13
2022-12-03T01:53:24.171Z,102880.02
2022-12-03T01:54:30.781Z,102879.94
2022-12-03T01:55:33.883Z,102877.34
2022-12-03T01:56:37.056Z,102883.48
2022-12-03T01:57:46.680Z,102875.41
2022-12-03T01:58:49.867Z,102877.11
2022-12-03T01:59:55.674Z,102880.65
2022-12-03T02:01:05.246Z,102868.26
2022-12-03T02:02:26.984Z,102871.70
2022-12-03T02:03:30.126Z,102874.37
2022-12-03T02:04:33.767Z,102866.36
2022-12-03T02:05:37.532Z,102872.57
2022-12-03T02:06:42.290Z,102867.30
2022-12-03T02:07:45.807Z,102866.42
2022-12-03T02:08:49.468Z,102862.92
2022-12-03T02:09:54.354Z,102862.05
2022-12-03T02:11:01.298Z,102870.13
2022-12-03T02:12:04.944Z,102872.80
2022-12-03T02:13:09.623Z,102874.60
2022-12-03T02:14:16.235Z,102872.00
2022-12-03T02:15:19.472Z,102862.25
2022-12-03T02:16:22.875Z,102876.56
2022-12-03T02:17:27.577Z,102874.83
2022-12-03T02:18:30.857Z,102874.90
2022-12-03T02:19:34.034Z,102872.23
2022-12-03T02:20:43.719Z,102874.03
2022-12-03T02:21:59.382Z,102874.97
2022-12-03T02:23:09.114Z,102887.45
2022-12-03T02:24:30.836Z,102879.53
2022-12-03T02:25:35.541Z,102875.13
2022-12-03T02:26:38.825Z,102884.14
2022-12-03T02:27:42.717Z,102876.23
2022-12-03T02:28:45.976Z,102873.62
2022-12-03T02:29:49.065Z,102876.29
2022-12-03T02:30:52.247Z,102891.45
2022-12-03T02:31:56.009Z,102877.22
2022-12-03T02:33:00.737Z,102883.44
2022-12-03T02:34:07.663Z,102887.91
2022-12-03T02:35:19.959Z,102886.04
2022-12-03T02:36:23.568Z,102894.92
2022-12-03T02:37:36.045Z,102891.31
2022-12-03T02:38:40.870Z,102891.31
2022-12-03T02:39:48.864Z,102890.34
2022-12-03T02:41:01.741Z,102898.36
2022-12-03T02:42:24.115Z,102903.64
2022-12-03T02:43:27.636Z,102901.77
2022-12-03T02:44:30.836Z,102896.33
2022-12-03T02:45:37.474Z,102896.33
2022-12-03T02:46:41.023Z,102892.66
2022-12-03T02:47:47.754Z,102898.80
2022-12-03T02:48:50.968Z,102904.05
2022-12-03T02:49:54.161Z,102896.91
2022-12-03T02:51:00.642Z,102896.84
2022-12-03T02:52:04.384Z,102895.97
2022-12-03T02:53:10.551Z,102895.03
2022-12-03T02:54:13.772Z,102905.66
2022-12-03T02:55:17.961Z,102906.59
2022-12-03T02:56:24.547Z,102901.31
2022-12-03T02:57:27.762Z,102909.33
2022-12-03T02:58:33.568Z,102902.19
2022-12-03T02:59:36.780Z,102900.38
2022-12-03T03:00:41.914Z,102902.98
2022-12-03T03:01:45.247Z,102904.69
2022-12-03T03:02:50.384Z,102905.49
2022-12-03T03:03:54.300Z,102905.33
2022-12-03T03:04:59.307Z,102901.72
2022-12-03T03:06:04.910Z,102903.45
2022-12-03T03:07:09.117Z,102904.33
2022-12-03T03:08:12.921Z,102903.39
2022-12-03T03:09:16.244Z,102899.86
2022-12-03T03:10:22.619Z,102902.53
2022-12-03T03:11:26.336Z,102904.33
2022-12-03T03:12:29.536Z,102898.05
2022-12-03T03:13:34.852Z,102906.84
2022-12-03T03:14:38.469Z,102904.09
2022-12-03T03:15:42.466Z,102897.75
2022-12-03T03:16:47.395Z,102900.33
2022-12-03T03:17:50.808Z,102907.41
2022-12-03T03:18:53.987Z,102903.80
2022-12-03T03:19:57.050Z,102907.34
2022-12-03T03:21:00.824Z,102909.08
2022-12-03T03:22:03.880Z,102910.88
2022-12-03T03:23:13.203Z,102919.77
2022-12-03T03:24:16.382Z,102918.89
2022-12-03T03:25:24.178Z,102907.27
2022-12-03T03:26:28.549Z,102919.70
2022-12-03T03:27:32.239Z,102916.16
2022-12-03T03:28:38.849Z,102913.48
2022-12-03T03:29:42.027Z,102919.70
2022-12-03T03:30:46.617Z,102912.52
2022-12-03T03:31:49.873Z,102920.47
2022-12-03T03:32:53.051Z,102915.05
2022-12-03T03:33:56.426Z,102921.27
2022-12-03T03:34:59.611Z,102917.56
2022-12-03T03:36:03.238Z,102922.84
2022-12-03T03:37:06.398Z,102917.50
2022-12-03T03:38:09.985Z,102924.58
2022-12-03T03:39:13.745Z,102920.10
2022-12-03T03:40:17.208Z,102917.42
2022-12-03T03:41:21.403Z,102912.95
2022-12-03T03:42:24.799Z,102916.56
2022-12-03T03:43:30.480Z,102919.30
2022-12-03T03:44:33.564Z,102918.36
2022-12-03T03:45:36.683Z,102920.97
2022-12-03T03:46:40.312Z,102923.64
2022-12-03T03:47:43.778Z,102926.22
2022-12-03T03:48:48.575Z,102921.73
2022-12-03T03:49:52.449Z,102927.95
2022-12-03T03:50:56.435Z,102923.47
2022-12-03T03:51:59.610Z,102926.08
2022-12-03T03:53:04.563Z,102927.81
2022-12-03T03:54:08.145Z,102926.78
2022-12-03T03:55:11.916Z,102924.11
2022-12-03T03:56:17.080Z,102920.43
2022-12-03T03:57:20.202Z,102926.65
2022-12-03T03:58:23.446Z,102923.88
2022-12-03T03:59:26.523Z,102928.35
2022-12-03T04:00:30.797Z,102929.22
2022-12-03T04:01:34.056Z,102937.17
2022-12-03T04:02:37.694Z,102934.50
2022-12-03T04:03:41.043Z,102935.37
2022-12-03T04:04:44.272Z,102935.37
2022-12-03T04:05:49.560Z,102938.04
2022-12-03T04:06:52.872Z,102938.11
2022-12-03T04:07:56.120Z,102935.44
2022-12-03T04:08:59.280Z,102938.21
2022-12-03T04:10:04.201Z,102939.05
2022-12-03T04:11:25.921Z,102944.39
2022-12-03T04:12:47.556Z,102940.88
2022-12-03T04:13:50.764Z,102938.21
2022-12-03T04:14:54.024Z,102941.81
2022-12-03T04:15:57.247Z,102941.81
2022-12-03T04:17:00.771Z,102941.81
2022-12-03T04:18:22.488Z,102946.30
2022-12-03T04:19:25.603Z,102949.03
2022-12-03T04:20:28.803Z,102943.86
2022-12-03T04:21:50.281Z,102945.66
2022-12-03T04:22:53.481Z,102954.45
2022-12-03T04:23:56.670Z,102950.07
2022-12-03T04:26:39.145Z,102952.98
2022-12-03T04:28:00.680Z,102941.08
2022-12-03T04:29:03.759Z,102958.86
2022-12-03T04:30:07.958Z,102962.40
2022-12-03T04:31:29.219Z,102962.33
2022-12-03T04:32:50.773Z,102958.56
2022-12-03T04:34:12.372Z,102957.62
2022-12-03T04:35:34.058Z,102960.30
2022-12-03T04:36:37.292Z,102963.84
2022-12-03T04:37:40.466Z,102960.12
2022-12-03T04:38:43.655Z,102962.80
2022-12-03T04:39:46.726Z,102968.08
2022-12-03T04:41:03.369Z,102967.15
2022-12-03T04:42:06.772Z,102973.30
2022-12-03T04:43:09.948Z,102969.75
2022-12-03T04:45:25.012Z,102971.65
2022-12-03T04:46:28.469Z,102964.94
2022-12-03T04:47:36.831Z,102978.11
2022-12-03T04:48:36.766Z,102974.39
2022-12-03T04:49:42.928Z,102973.52
2022-12-03T04:50:46.045Z,102979.74
2022-12-03T04:51:49.311Z,102980.78
2022-12-03T04:52:52.383Z,102983.45
2022-12-03T04:53:55.465Z,102986.20
2022-12-03T04:54:58.618Z,102980.05
2022-12-03T04:56:01.697Z,102977.47
2022-12-03T04:57:05.192Z,102988.23
2022-12-03T04:58:08.282Z,102982.02
2022-12-03T04:59:16.027Z,102982.02
2022-12-03T05:00:16.858Z,102983.76
2022-12-03T05:01:20.061Z,102975.80
2022-12-03T05:02:23.316Z,102987.36
2022-12-03T05:03:26.437Z,102987.36
2022-12-03T05:04:29.617Z,102987.36
2022-12-03T05:05:32.715Z,102986.43
2022-12-03T05:06:36.107Z,102989.88
2022-12-03T05:07:39.317Z,102988.06
2022-12-03T05:08:42.437Z,102991.61
2022-12-03T05:09:45.508Z,102988.94
2022-12-03T05:10:48.564Z,102996.96
2022-12-03T05:11:51.644Z,102995.22
2022-12-03T05:12:54.810Z,102991.68
2022-12-03T05:13:57.877Z,102994.45
2022-12-03T05:15:01.351Z,103000.73
2022-12-03T05:16:04.569Z,103004.28
2022-12-03T05:17:07.696Z,103002.47
2022-12-03T05:18:10.907Z,102998.00
2022-12-03T05:19:13.976Z,102999.80
2022-12-03T05:20:35.215Z,103005.05
2022-12-03T05:21:38.302Z,103001.44
2022-12-03T05:22:41.381Z,103004.91
2022-12-03T05:23:44.659Z,103004.91
2022-12-03T05:24:47.736Z,103003.98
2022-12-03T05:25:50.808Z,103003.11
2022-12-03T05:26:53.870Z,103012.00
2022-12-03T05:27:56.960Z,103011.90
2022-12-03T05:29:00.127Z,103014.51
2022-12-03T05:30:03.886Z,102998.39
2022-12-03T05:31:07.049Z,103007.22
2022-12-03T05:32:10.215Z,103015.08
2022-12-03T05:33:13.512Z,103007.92
2022-12-03T05:34:16.719Z,103015.77
2022-12-03T05:35:20.154Z,103015.64
2022-12-03T05:36:24.770Z,103012.03
2022-12-03T05:37:27.907Z,103015.47
2022-12-03T05:38:31.028Z,103025.30
2022-12-03T05:39:34.229Z,103018.14
2022-12-03T05:40:37.622Z,103012.89
2022-12-03T05:41:59.227Z,103025.41
2022-12-03T05:43:02.450Z,103020.99
2022-12-03T05:44:05.596Z,103025.47
2022-12-03T05:45:09.312Z,103035.30
2022-12-03T05:46:12.567Z,103028.15
2022-12-03T05:47:15.801Z,103026.41
2022-12-03T05:48:18.999Z,103025.54
2022-12-03T05:49:22.208Z,103032.63
2022-12-03T05:50:29.164Z,103026.47
2022-12-03T05:51:32.375Z,103033.56
2022-12-03T05:52:35.685Z,103035.47
2022-12-03T05:53:38.896Z,103027.52
2022-12-03T05:54:42.077Z,103038.28
2022-12-03T05:55:45.275Z,103038.34
2022-12-03T05:56:48.489Z,103039.38
2022-12-03T05:57:52.001Z,103036.77
2022-12-03T05:58:55.170Z,103033.39
2022-12-03T05:59:58.260Z,103036.13
2022-12-03T06:01:01.454Z,103040.67
2022-12-03T06:02:04.657Z,103051.47
2022-12-03T06:03:08.003Z,103036.36
2022-12-03T06:04:11.316Z,103044.45
2022-12-03T06:05:15.735Z,103040.04
2022-12-03T06:06:18.987Z,103037.37
2022-12-03T06:07:22.226Z,103028.47
2022-12-03T06:08:25.417Z,103049.86
2022-12-03T06:09:28.544Z,103032.12
2022-12-03T06:10:31.943Z,103050.83
2022-12-03T06:11:36.548Z,103047.29
2022-12-03T06:12:39.767Z,103040.91
2022-12-03T06:13:42.979Z,103039.91
2022-12-03T06:14:46.086Z,103049.57
2022-12-03T06:15:49.249Z,103045.89
2022-12-03T06:16:52.551Z,103041.31
2022-12-03T06:17:55.734Z,103043.86
2022-12-03T06:18:58.917Z,103039.31
2022-12-03T06:20:02.312Z,103042.76
2022-12-03T06:21:06.153Z,103040.02
2022-12-03T06:22:09.731Z,103046.17
2022-12-03T06:23:12.821Z,103049.61
2022-12-03T06:24:15.932Z,103057.64
2022-12-03T06:25:19.082Z,103054.89
2022-12-03T06:26:22.557Z,103055.77
2022-12-03T06:27:25.639Z,103054.83
2022-12-03T06:28:28.725Z,103056.63
2022-12-03T06:29:31.897Z,103062.86
2022-12-03T06:30:35.306Z,103057.50
2022-12-03T06:31:38.503Z,103054.83
2022-12-03T06:32:41.658Z,103060.08
2022-12-03T06:33:44.723Z,103059.14
2022-12-03T06:34:47.796Z,103060.95
2022-12-03T06:35:51.006Z,103060.08
2022-12-03T06:36:54.169Z,103060.95
2022-12-03T06:37:57.356Z,103069.07
2022-12-03T06:39:00.522Z,103068.20
2022-12-03T06:40:04.010Z,103060.17
2022-12-03T06:41:07.215Z,103059.30
2022-12-03T06:42:10.284Z,103067.33
2022-12-03T06:43:13.478Z,103061.18
2022-12-03T06:44:16.644Z,103069.20
2022-12-03T06:45:19.740Z,103069.20
2022-12-03T06:46:22.874Z,103069.20
2022-12-03T06:47:25.975Z,103074.55
2022-12-03T06:48:29.052Z,103071.08
2022-12-03T06:49:32.147Z,103076.42
2022-12-03T06:50:35.408Z,103068.41
2022-12-03T06:51:38.783Z,103079.10
2022-12-03T06:52:41.843Z,103081.88
2022-12-03T06:53:44.912Z,103078.33
2022-12-03T06:54:47.999Z,103076.59
2022-12-03T06:55:51.093Z,103076.66
2022-12-03T06:56:54.261Z,103078.46
2022-12-03T06:57:57.317Z,103081.14
2022-12-03T06:59:00.409Z,103088.29
2022-12-03T07:00:05.533Z,103079.50
2022-12-03T07:01:08.675Z,103080.50
2022-12-03T07:02:12.224Z,103082.40
2022-12-03T07:03:15.650Z,103082.40
2022-12-03T07:04:18.859Z,103077.98
2022-12-03T07:05:21.983Z,103079.79
2022-12-03T07:06:25.284Z,103086.07
2022-12-03T07:07:28.597Z,103080.79
2022-12-03T07:08:31.740Z,103091.58
2022-12-03T07:09:34.922Z,103088.04
2022-12-03T07:10:38.593Z,103091.64
2022-12-03T07:11:41.786Z,103094.32
2022-12-03T07:12:44.902Z,103089.91
2022-12-03T07:13:48.138Z,103093.45
2022-12-03T07:14:51.936Z,103100.61
2022-12-03T07:15:55.434Z,103100.61
2022-12-03T07:16:58.573Z,103100.61
2022-12-03T07:18:01.798Z,103100.61
2022-12-03T07:19:06.196Z,103109.49
2022-12-03T07:20:10.214Z,103102.34
2022-12-03T07:21:13.427Z,103106.76
2022-12-03T07:22:16.816Z,103104.08
2022-12-03T07:23:19.899Z,103111.17
2022-12-03T07:24:23.370Z,103114.62
2022-12-03T07:25:26.560Z,103112.81
2022-12-03T07:26:29.816Z,103102.98
2022-12-03T07:27:33.003Z,103107.47
2022-12-03T07:28:36.248Z,103103.05
2022-12-03T07:29:39.338Z,103109.27
2022-12-03T07:30:42.903Z,103114.62
2022-12-03T07:31:46.208Z,103111.95
2022-12-03T07:32:49.705Z,103108.40
2022-12-03T07:33:52.802Z,103119.09
2022-12-03T07:34:56.318Z,103112.01
2022-12-03T07:35:59.752Z,103121.00
2022-12-03T07:37:02.949Z,103124.54
2022-12-03T07:38:06.155Z,103120.19
2022-12-03T07:39:09.258Z,103126.47
2022-12-03T07:40:13.051Z,103121.28
2022-12-03T07:41:16.258Z,103123.95
2022-12-03T07:42:19.566Z,103131.11
2022-12-03T07:43:22.786Z,103114.13
2022-12-03T07:44:26.035Z,103119.38
2022-12-03T07:45:29.191Z,103126.47
2022-12-03T07:46:32.620Z,103122.00
2022-12-03T07:47:35.790Z,103121.06
2022-12-03T07:48:38.978Z,103121.93
2022-12-03T07:49:42.151Z,103125.47
2022-12-03T07:50:45.456Z,103120.03
2022-12-03T07:51:50.300Z,103129.80
2022-12-03T07:52:53.920Z,103120.84
2022-12-03T07:53:57.037Z,103119.03
2022-12-03T07:55:00.228Z,103119.97
2022-12-03T07:56:04.321Z,103129.73
2022-12-03T07:57:07.429Z,103127.92
2022-12-03T07:58:10.513Z,103125.31
2022-12-03T07:59:14.373Z,103125.31
2022-12-03T08:00:19.270Z,103131.59
2022-12-03T08:01:22.424Z,103130.73
2022-12-03T08:02:25.695Z,103134.27
2022-12-03T08:03:28.922Z,103125.37
2022-12-03T08:04:32.013Z,103138.75
2022-12-03T08:05:35.191Z,103128.15
2022-12-03T08:06:38.578Z,103134.43
2022-12-03T08:07:41.720Z,103137.17
2022-12-03T08:08:44.942Z,103131.05
2022-12-03T08:09:48.107Z,103132.05
2022-12-03T08:10:51.184Z,103126.85
2022-12-03T08:11:55.055Z,103135.94
2022-12-03T08:12:59.436Z,103138.61
2022-12-03T08:14:09.342Z,103137.73
2022-12-03T08:15:23.426Z,103135.94
2022-12-03T08:16:26.668Z,103146.56
2022-12-03T08:17:29.819Z,103134.06
2022-12-03T08:18:32.921Z,103142.95
2022-12-03T08:19:36.026Z,103146.56
2022-12-03T08:20:40.512Z,103138.61
2022-12-03T08:21:44.305Z,103136.03
2022-12-03T08:22:50.403Z,103142.22
2022-12-03T08:23:53.501Z,103142.22
2022-12-03T08:24:58.381Z,103134.29
2022-12-03T08:26:01.601Z,103132.48
2022-12-03T08:27:07.708Z,103134.19
2022-12-03T08:28:18.535Z,103134.19
2022-12-03T08:29:22.420Z,103128.78
2022-12-03T08:30:25.582Z,103142.15
2022-12-03T08:31:33.446Z,103138.61
2022-12-03T08:32:36.220Z,103149.30
2022-12-03T08:33:41.220Z,103137.73
2022-12-03T08:34:44.754Z,103146.56
2022-12-03T08:35:50.292Z,103149.08
2022-12-03T08:37:12.046Z,103146.34
2022-12-03T08:38:20.481Z,103149.89
2022-12-03T08:39:37.181Z,103149.17
2022-12-03T08:40:42.971Z,103149.23
2022-12-03T08:42:13.423Z,103144.77
2022-12-03T08:43:24.758Z,103143.89
2022-12-03T08:44:40.592Z,103144.83
2022-12-03T08:45:44.153Z,103142.22
2022-12-03T08:46:49.971Z,103143.30
2022-12-03T08:49:17.455Z,103148.87
2022-12-03T08:50:32.962Z,103148.93
2022-12-03T08:51:36.162Z,103148.16
2022-12-03T08:52:39.372Z,103148.00
2022-12-03T08:55:31.326Z,103143.67
2022-12-03T08:56:36.642Z,103140.50
2022-12-03T08:57:42.809Z,103131.52
2022-12-03T08:58:57.895Z,103139.48
2022-12-03T09:00:14.733Z,103132.33
2022-12-03T09:01:30.603Z,103141.22
2022-12-03T09:02:34.447Z,103142.09
2022-12-03T09:03:39.674Z,103130.46
2022-12-03T09:04:46.561Z,103132.20
2022-12-03T09:05:50.548Z,103132.98
2022-12-03T09:06:54.532Z,103123.95
2022-12-03T09:07:57.640Z,103125.54
2022-12-03T09:09:05.271Z,103128.86
2022-12-03T09:10:07.809Z,103123.28
2022-12-03T09:11:10.991Z,103125.83
2022-12-03T09:12:14.068Z,103122.13
2022-12-03T09:13:17.233Z,103131.89
2022-12-03T09:14:22.031Z,103132.76
2022-12-03T09:15:25.482Z,103135.44
2022-12-03T09:16:28.721Z,103133.56
2022-12-03T09:17:31.826Z,103139.69
2022-12-03T09:18:34.893Z,103137.81
2022-12-03T09:19:44.289Z,103136.95
2022-12-03T09:20:46.571Z,103145.84
2022-12-03T09:21:49.624Z,103146.78
2022-12-03T09:22:52.957Z,103143.30
2022-12-03T09:23:56.047Z,103145.13
2022-12-03T09:24:59.229Z,103151.42
2022-12-03T09:26:02.312Z,103146.13
2022-12-03T09:27:05.417Z,103144.39
2022-12-03T09:28:08.506Z,103141.72
2022-12-03T09:29:12.555Z,103147.12
2022-12-03T09:30:17.036Z,103148.87
2022-12-03T09:31:20.300Z,103151.55
2022-12-03T09:32:23.587Z,103142.65
2022-12-03T09:33:26.758Z,103145.33
2022-12-03T09:34:29.960Z,103144.45
2022-12-03T09:35:33.094Z,103147.06
2022-12-03T09:36:36.369Z,103136.30
2022-12-03T09:37:39.460Z,103141.66
2022-12-03T09:38:46.229Z,103139.91
2022-12-03T09:39:47.925Z,103146.13
2022-12-03T09:40:51.368Z,103137.23
2022-12-03T09:41:55.163Z,103137.11
2022-12-03T09:42:58.267Z,103142.36
2022-12-03T09:44:04.958Z,103148.52
2022-12-03T09:45:10.356Z,103139.55
2022-12-03T09:46:13.854Z,103143.10
2022-12-03T09:47:17.491Z,103138.63
2022-12-03T09:48:21.080Z,103144.75
2022-12-03T09:49:24.294Z,103140.27
2022-12-03T09:50:27.702Z,103144.68
2022-12-03T09:51:35.920Z,103153.58
2022-12-03T09:52:39.146Z,103145.55
2022-12-03T09:53:42.370Z,103149.86
2022-12-03T09:54:47.601Z,103149.00
2022-12-03T09:55:50.619Z,103143.64
2022-12-03T09:56:55.805Z,103148.13
2022-12-03T09:58:00.146Z,103149.97
2022-12-03T09:59:14.460Z,103145.55
2022-12-03T10:00:23.679Z,103133.98
2022-12-03T10:01:30.142Z,103142.94
2022-12-03T10:02:33.713Z,103137.59
2022-12-03T10:03:40.536Z,103144.68
2022-12-03T10:04:43.750Z,103137.42
2022-12-03T10:05:48.314Z,103134.75
2022-12-03T10:06:51.799Z,103135.55
2022-12-03T10:07:57.698Z,103136.42
2022-12-03T10:09:01.002Z,103139.10
2022-12-03T10:10:06.472Z,103135.62
2022-12-03T10:11:09.750Z,103133.05
2022-12-03T10:12:14.848Z,103130.50
2022-12-03T10:13:27.509Z,103132.41
2022-12-03T10:14:30.944Z,103137.88
2022-12-03T10:15:34.151Z,103130.24
2022-12-03T10:16:39.646Z,103131.31
2022-12-03T10:17:43.016Z,103137.81
2022-12-03T10:18:52.222Z,103126.47
2022-12-03T10:19:55.763Z,103124.95
2022-12-03T10:20:59.259Z,103133.26
2022-12-03T10:22:04.431Z,103126.33
2022-12-03T10:23:07.972Z,103128.35
2022-12-03T10:24:26.641Z,103131.09
2022-12-03T10:25:29.858Z,103124.00
2022-12-03T10:26:40.065Z,103127.64
2022-12-03T10:27:45.561Z,103129.44
2022-12-03T10:28:49.360Z,103122.36
2022-12-03T10:29:57.737Z,103115.21
2022-12-03T10:31:03.068Z,103115.21
2022-12-03T10:32:08.902Z,103117.82
2022-12-03T10:33:18.908Z,103114.19
2022-12-03T10:35:42.154Z,103120.64
2022-12-03T10:36:45.378Z,103123.88
2022-12-03T10:38:00.960Z,103128.35
2022-12-03T10:39:15.805Z,103123.94
2022-12-03T10:40:22.564Z,103123.01
2022-12-03T10:41:27.523Z,103119.41
2022-12-03T10:42:33.391Z,103114.83
2022-12-03T10:43:36.473Z,103115.70
2022-12-03T10:44:39.533Z,103120.98
2022-12-03T10:45:43.950Z,103115.64
2022-12-03T10:48:26.759Z,103118.67
2022-12-03T10:49:29.956Z,103123.66
2022-12-03T10:50:34.236Z,103125.40
2022-12-03T10:51:38.855Z,103116.45
2022-12-03T10:52:42.025Z,103126.17
2022-12-03T10:53:45.113Z,103123.44
2022-12-03T10:54:49.608Z,103121.63
2022-12-03T10:55:55.188Z,103114.48
2022-12-03T10:56:58.373Z,103113.61
2022-12-03T10:58:01.457Z,103119.89
2022-12-03T10:59:04.713Z,103123.50
2022-12-03T11:00:10.219Z,103120.05
2022-12-03T11:01:16.436Z,103121.05
2022-12-03T11:02:22.381Z,103119.41
2022-12-03T11:03:28.579Z,103128.35
2022-12-03T11:04:34.470Z,103123.88
2022-12-03T11:05:37.657Z,103126.55
2022-12-03T11:06:40.745Z,103126.55
2022-12-03T11:07:44.800Z,103127.48
2022-12-03T11:08:56.530Z,103128.42
2022-12-03T11:09:55.923Z,103124.00
2022-12-03T11:11:02.027Z,103124.09
2022-12-03T11:12:07.073Z,103124.09
2022-12-03T11:13:30.054Z,103121.42
2022-12-03T11:14:55.997Z,103127.55
2022-12-03T11:16:04.818Z,103128.35
2022-12-03T11:17:08.008Z,103131.68
2022-12-03T11:18:11.091Z,103128.94
2022-12-03T11:19:17.237Z,103134.19
2022-12-03T11:20:26.672Z,103122.56
2022-12-03T11:21:30.274Z,103137.61
2022-12-03T11:22:42.477Z,103134.00
2022-12-03T11:23:49.260Z,103132.05
2022-12-03T11:25:15.351Z,103126.63
2022-12-03T11:26:31.003Z,103129.30
2022-12-03T11:27:35.198Z,103131.17
2022-12-03T11:28:51.487Z,103125.02
2022-12-03T11:30:00.147Z,103133.13
2022-12-03T11:31:08.410Z,103132.39
2022-12-03T11:32:13.336Z,103136.96
2022-12-03T11:33:24.833Z,103134.41
2022-12-03T11:36:01.749Z,103126.92
2022-12-03T11:37:15.987Z,103130.16
2022-12-03T11:38:40.907Z,103137.30
2022-12-03T11:39:57.224Z,103137.30
2022-12-03T11:41:16.099Z,103131.95
2022-12-03T11:42:25.592Z,103140.04
2022-12-03T11:43:55.696Z,103132.98
2022-12-03T11:45:08.464Z,103135.66
2022-12-03T11:46:11.772Z,103130.22
2022-12-03T11:47:15.934Z,103127.42
2022-12-03T11:48:19.139Z,103133.55
2022-12-03T11:49:31.383Z,103136.09
2022-12-03T11:50:43.661Z,103129.81
2022-12-03T11:51:46.949Z,103133.36
2022-12-03T11:52:56.521Z,103142.09
2022-12-03T11:54:00.248Z,103132.27
2022-12-03T11:55:19.222Z,103134.94
2022-12-03T11:56:28.064Z,103139.35
2022-12-03T11:57:36.817Z,103136.74
2022-12-03T11:58:42.697Z,103142.09
2022-12-03T12:01:11.817Z,103137.91
2022-12-03T12:02:21.372Z,103144.54
2022-12-03T12:03:34.069Z,103148.08
2022-12-03T12:04:37.413Z,103140.94
2022-12-03T12:05:40.666Z,103147.22
2022-12-03T12:06:48.717Z,103145.47
2022-12-03T12:07:50.981Z,103149.02
2022-12-03T12:08:58.966Z,103146.34
2022-12-03T12:10:03.243Z,103141.93
2022-12-03T12:11:28.975Z,103140.22
2022-12-03T12:14:02.304Z,103143.55
2022-12-03T12:15:43.679Z,103145.85
2022-12-03T12:16:50.275Z,103148.65
2022-12-03T12:17:53.727Z,103147.94
2022-12-03T12:18:56.793Z,103149.89
2022-12-03T12:20:25.662Z,103152.63
2022-12-03T12:21:47.769Z,103145.55
2022-12-03T12:22:52.325Z,103148.28
2022-12-03T12:23:55.395Z,103143.09
2022-12-03T12:30:58.701Z,103145.10
2022-12-03T12:32:17.010Z,103146.46
2022-12-03T12:34:33.078Z,103151.81
2022-12-03T12:35:36.959Z,103145.20
2022-12-03T12:36:40.347Z,103152.34
2022-12-03T12:38:00.037Z,103149.59
2022-12-03T12:39:15.213Z,103164.63
2022-12-03T12:40:19.764Z,103155.69
2022-12-03T12:41:22.843Z,103154.81
2022-12-03T12:42:32.273Z,103158.30
2022-12-03T12:43:35.497Z,103160.88
2022-12-03T12:44:38.803Z,103161.80
2022-12-03T12:45:43.073Z,103157.42
2022-12-03T12:46:48.419Z,103161.80